Time;durP1;ratioP1;P1;durP2;ratioP2;P2;SDS_P1;SDS_P2;PMS_P1;PMS_P2;Temp;Humidity;BMP_temperature;BMP_pressure;BME280_temperature;BME280_humidity;BME280_pressure;Samples;Min_cycle;Max_cycle;Signal;HPM_P1;HPM_P2
2023/04/04 00:01:05;;;;;;;2.72;2.63;;;4.10;7.00;;;;;;5086511;28;20421;-81
2023/04/04 00:03:33;;;;;;;3.10;2.85;;;4.10;7.00;;;;;;5091415;28;20215;-80
2023/04/04 00:06:01;;;;;;;3.08;2.88;;;4.00;6.70;;;;;;5087557;28;20277;-81
2023/04/04 00:08:29;;;;;;;3.42;3.13;;;4.10;7.60;;;;;;5084212;28;20192;-81
2023/04/04 00:11:00;;;;;;;3.45;3.35;;;4.00;19.50;;;;;;5082570;28;20220;-81
2023/04/04 00:13:30;;;;;;;3.67;3.38;;;4.00;9.60;;;;;;5083444;28;20286;-80
2023/04/04 00:15:58;;;;;;;3.53;3.17;;;3.90;8.20;;;;;;5084796;28;21255;-81
2023/04/04 00:18:26;;;;;;;3.10;2.90;;;3.90;7.40;;;;;;5085874;28;20210;-81
2023/04/04 00:20:54;;;;;;;2.60;2.50;;;3.80;8.10;;;;;;5080036;28;20247;-81
2023/04/04 00:23:22;;;;;;;3.42;3.13;;;3.90;9.50;;;;;;5085735;28;20211;-81
2023/04/04 00:25:51;;;;;;;3.03;2.85;;;3.90;7.70;;;;;;5089057;28;20184;-81
2023/04/04 00:28:20;;;;;;;3.42;3.15;;;3.90;7.20;;;;;;5085277;28;20191;-81
2023/04/04 00:30:50;;;;;;;3.40;3.20;;;3.90;7.20;;;;;;5085477;28;20617;-81
2023/04/04 00:33:18;;;;;;;3.40;3.30;;;3.80;7.50;;;;;;5087311;28;20194;-80
2023/04/04 00:35:49;;;;;;;4.43;3.97;;;3.80;7.20;;;;;;5083442;28;20200;-80
2023/04/04 00:38:17;;;;;;;3.20;3.10;;;3.80;6.80;;;;;;5090379;28;20197;-81
2023/04/04 00:40:49;;;;;;;3.35;2.90;;;3.80;7.50;;;;;;5080469;28;20306;-80
2023/04/04 00:43:18;;;;;;;2.88;2.67;;;3.80;7.10;;;;;;5087161;28;20203;-81
2023/04/04 00:45:46;;;;;;;3.00;2.90;;;3.70;6.90;;;;;;5087787;28;20246;-79
2023/04/04 00:48:16;;;;;;;3.40;3.20;;;3.70;6.50;;;;;;5090768;28;20207;-81
2023/04/04 00:50:44;;;;;;;3.28;3.08;;;3.70;6.70;;;;;;5083444;28;20216;-80
2023/04/04 00:53:12;;;;;;;3.13;2.92;;;3.70;5.70;;;;;;5087231;28;20200;-80
2023/04/04 00:55:42;;;;;;;4.25;3.40;;;3.70;6.20;;;;;;5085559;28;20223;-80
2023/04/04 00:58:10;;;;;;;6.47;3.08;;;3.60;6.10;;;;;;5084809;28;20199;-81
2023/04/04 01:00:39;;;;;;;2.72;2.63;;;3.60;6.50;;;;;;5082680;28;20835;-77
2023/04/04 01:03:11;;;;;;;6.13;3.75;;;3.60;6.60;;;;;;5084858;28;20394;-80
2023/04/04 01:05:41;;;;;;;3.58;2.90;;;3.60;6.30;;;;;;5089533;28;20691;-79
2023/04/04 01:08:09;;;;;;;3.20;3.00;;;3.60;18.10;;;;;;5091958;28;20196;-80
2023/04/04 01:10:38;;;;;;;3.72;3.28;;;3.60;6.60;;;;;;5088072;28;20524;-80
2023/04/04 01:13:07;;;;;;;3.55;3.35;;;3.50;6.60;;;;;;5085965;28;20321;-80
2023/04/04 01:15:35;;;;;;;3.10;2.90;;;3.60;6.70;;;;;;5088576;28;20211;-80
2023/04/04 01:18:05;;;;;;;4.35;3.95;;;3.50;7.10;;;;;;5088116;28;20449;-81
2023/04/04 01:20:37;;;;;;;3.28;3.10;;;3.50;5.80;;;;;;5085472;28;20224;-80
2023/04/04 01:23:09;;;;;;;3.35;3.10;;;3.50;4.90;;;;;;5082672;28;20220;-80
2023/04/04 01:25:38;;;;;;;3.47;3.28;;;3.50;4.60;;;;;;5086412;28;20252;-80
2023/04/04 01:28:07;;;;;;;3.05;2.85;;;3.50;8.90;;;;;;5087690;28;20195;-80
2023/04/04 01:30:37;;;;;;;3.38;2.85;;;3.40;3.90;;;;;;5088268;28;20212;-80
2023/04/04 01:33:13;;;;;;;3.33;3.03;;;3.40;3.80;;;;;;5086353;28;20695;-81
2023/04/04 01:35:50;;;;;;;3.50;3.30;;;3.40;3.40;;;;;;5086735;28;20226;-80
2023/04/04 01:38:27;;;;;;;3.70;3.40;;;3.30;3.40;;;;;;5087228;28;20198;-80
2023/04/04 01:41:02;;;;;;;3.40;3.20;;;3.30;3.30;;;;;;5083946;28;20245;-79
2023/04/04 01:43:31;;;;;;;3.30;3.10;;;3.30;2.60;;;;;;5078647;28;20652;-79
2023/04/04 01:45:59;;;;;;;3.33;3.15;;;3.30;2.60;;;;;;5083592;28;20256;-79
2023/04/04 01:48:28;;;;;;;2.53;2.42;;;3.20;2.20;;;;;;5082526;28;20243;-79
2023/04/04 01:50:56;;;;;;;3.03;2.92;;;3.20;2.40;;;;;;5073256;28;20219;-76
2023/04/04 01:53:25;;;;;;;3.33;3.10;;;3.20;2.90;;;;;;5084471;28;20223;-79
2023/04/04 01:55:53;;;;;;;3.30;3.00;;;3.10;2.40;;;;;;5084283;28;20398;-79
2023/04/04 01:58:22;;;;;;;3.15;3.03;;;3.10;2.80;;;;;;5083468;28;20272;-79
2023/04/04 02:00:50;;;;;;;3.30;3.10;;;3.10;2.50;;;;;;5083530;28;20424;-79
2023/04/04 02:03:19;;;;;;;5.07;3.25;;;3.10;2.50;;;;;;5086219;28;20290;-80
2023/04/04 02:05:48;;;;;;;3.08;2.88;;;3.10;1.80;;;;;;5086145;28;20648;-81
2023/04/04 02:08:16;;;;;;;3.50;3.20;;;3.10;1.00;;;;;;5088070;28;20199;-80
2023/04/04 02:10:44;;;;;;;3.45;3.25;;;3.10;1.00;;;;;;5087939;28;20684;-79
2023/04/04 02:13:12;;;;;;;3.53;2.90;;;3.10;1.50;;;;;;5087889;28;20210;-80
2023/04/04 02:15:42;;;;;;;3.53;3.33;;;3.00;1.00;;;;;;5089117;28;20225;-80
2023/04/04 02:18:10;;;;;;;3.50;3.17;;;3.00;1.00;;;;;;5084357;28;20205;-79
2023/04/04 02:20:38;;;;;;;3.40;3.10;;;3.00;1.00;;;;;;5084428;28;20218;-80
2023/04/04 02:23:07;;;;;;;3.03;2.83;;;3.00;1.20;;;;;;5086559;28;20198;-80
2023/04/04 02:25:35;;;;;;;3.50;3.25;;;3.00;1.70;;;;;;5083691;28;21086;-81
2023/04/04 02:28:03;;;;;;;4.20;3.92;;;3.00;2.00;;;;;;5083058;28;20301;-79
2023/04/04 02:30:31;;;;;;;3.30;3.10;;;3.00;1.10;;;;;;5085374;28;20223;-77
2023/04/04 02:33:01;;;;;;;3.08;2.92;;;3.00;1.40;;;;;;5081106;28;20271;-79
2023/04/04 02:35:30;;;;;;;3.45;3.13;;;2.90;1.20;;;;;;5086897;28;20201;-80
2023/04/04 02:37:58;;;;;;;3.72;3.40;;;2.90;1.90;;;;;;5085800;28;20194;-79
2023/04/04 02:40:26;;;;;;;3.13;3.03;;;2.90;2.70;;;;;;5085099;28;20622;-80
2023/04/04 02:42:54;;;;;;;5.63;3.65;;;2.90;3.40;;;;;;5090520;28;20489;-80
2023/04/04 02:45:22;;;;;;;3.10;3.00;;;2.90;4.10;;;;;;5087304;28;20257;-80
2023/04/04 02:47:51;;;;;;;2.95;2.85;;;2.80;4.20;;;;;;5084495;28;20280;-79
2023/04/04 02:50:20;;;;;;;2.85;2.75;;;2.80;4.40;;;;;;5084005;28;20292;-78
2023/04/04 02:52:48;;;;;;;4.10;2.95;;;2.70;4.60;;;;;;5088403;28;20835;-80
2023/04/04 02:55:16;;;;;;;3.22;3.13;;;2.60;5.20;;;;;;5087059;28;20228;-80
2023/04/04 02:57:51;;;;;;;3.20;3.00;;;2.70;6.10;;;;;;5092312;28;20685;-79
2023/04/04 03:00:19;;;;;;;3.72;3.50;;;2.60;6.70;;;;;;5085993;28;20295;-78
2023/04/04 03:02:54;;;;;;;3.42;3.20;;;2.70;7.60;;;;;;5087825;28;20228;-80
2023/04/04 03:05:25;;;;;;;3.70;3.50;;;2.60;8.10;;;;;;5090414;28;20560;-79
2023/04/04 03:07:55;;;;;;;3.17;2.97;;;2.60;8.90;;;;;;5087777;28;20201;-79
2023/04/04 03:10:23;;;;;;;3.40;3.30;;;2.60;9.40;;;;;;5090288;28;20777;-79
2023/04/04 03:12:52;;;;;;;3.97;3.00;;;2.60;10.00;;;;;;5089964;28;20229;-81
2023/04/04 03:15:20;;;;;;;3.20;3.00;;;2.60;10.30;;;;;;5090764;28;20282;-80
2023/04/04 03:17:48;;;;;;;3.88;3.58;;;2.60;10.80;;;;;;5090262;28;20226;-80
2023/04/04 03:20:16;;;;;;;4.80;4.40;;;2.60;11.30;;;;;;5088184;28;20225;-80
2023/04/04 03:22:46;;;;;;;4.70;3.90;;;2.50;11.30;;;;;;5085081;28;20206;-81
2023/04/04 03:25:15;;;;;;;4.20;3.80;;;2.60;12.30;;;;;;5088514;28;20566;-81
2023/04/04 03:27:43;;;;;;;3.88;3.58;;;2.50;13.50;;;;;;5086632;28;20199;-80
2023/04/04 03:30:12;;;;;;;3.38;3.20;;;2.50;14.40;;;;;;5086740;28;20195;-81
2023/04/04 03:32:40;;;;;;;5.38;4.88;;;2.50;14.00;;;;;;5086429;28;20197;-80
2023/04/04 03:35:09;;;;;;;3.65;3.45;;;2.50;15.40;;;;;;5089932;28;20247;-81
2023/04/04 03:37:37;;;;;;;3.95;3.75;;;2.50;15.10;;;;;;5087388;28;20210;-80
2023/04/04 03:40:08;;;;;;;3.67;3.47;;;2.40;18.90;;;;;;5088254;28;20198;-80
2023/04/04 03:42:36;;;;;;;3.72;3.53;;;2.40;15.00;;;;;;5089760;28;20252;-80
2023/04/04 03:45:06;;;;;;;3.90;3.70;;;2.40;15.40;;;;;;5089095;28;20216;-80
2023/04/04 03:47:34;;;;;;;3.60;3.40;;;2.40;15.90;;;;;;5090265;28;20261;-80
2023/04/04 03:50:02;;;;;;;3.30;3.10;;;2.30;16.40;;;;;;5082364;28;20211;-80
2023/04/04 03:52:30;;;;;;;3.53;3.38;;;2.40;17.20;;;;;;5088590;28;20278;-80
2023/04/04 03:54:58;;;;;;;3.60;3.40;;;2.30;17.50;;;;;;5074258;28;20899;-81
2023/04/04 03:57:28;;;;;;;3.38;3.20;;;2.30;18.50;;;;;;5087728;28;20550;-80
2023/04/04 03:59:56;;;;;;;3.95;3.65;;;2.20;18.20;;;;;;5084643;28;20233;-82
2023/04/04 04:02:25;;;;;;;3.60;3.50;;;2.30;20.30;;;;;;5081915;28;20304;-80
2023/04/04 04:04:53;;;;;;;4.70;4.30;;;2.20;20.00;;;;;;5086391;28;20197;-79
2023/04/04 04:07:21;;;;;;;4.20;3.90;;;2.20;20.00;;;;;;5082045;28;20232;-80
2023/04/04 04:09:49;;;;;;;3.60;3.40;;;2.20;20.20;;;;;;5082408;28;20209;-79
2023/04/04 04:12:17;;;;;;;3.58;3.28;;;2.20;20.90;;;;;;5084646;28;20263;-80
2023/04/04 04:14:47;;;;;;;3.60;3.50;;;2.20;21.90;;;;;;5086614;28;20255;-80
2023/04/04 04:17:15;;;;;;;3.80;3.60;;;2.20;22.00;;;;;;5087597;28;20229;-79
2023/04/04 04:19:43;;;;;;;4.07;3.88;;;2.10;22.00;;;;;;5086611;28;20198;-80
2023/04/04 04:22:11;;;;;;;4.32;4.10;;;2.10;23.20;;;;;;5091850;28;20230;-80
2023/04/04 04:24:39;;;;;;;3.90;3.70;;;2.10;23.80;;;;;;5084608;28;20210;-81
2023/04/04 04:27:07;;;;;;;3.65;3.47;;;2.10;24.90;;;;;;5076690;28;20261;-80
2023/04/04 04:29:35;;;;;;;4.50;3.78;;;2.10;24.90;;;;;;5079289;28;20802;-81
2023/04/04 04:32:05;;;;;;;4.72;3.97;;;2.20;36.40;;;;;;5073938;28;20235;-80
2023/04/04 04:34:33;;;;;;;4.10;3.80;;;2.10;24.20;;;;;;5075502;28;20685;-79
2023/04/04 04:37:02;;;;;;;4.20;3.90;;;2.10;23.90;;;;;;5078894;28;20219;-78
2023/04/04 04:39:30;;;;;;;4.95;3.50;;;2.10;24.80;;;;;;5072278;28;20277;-78
2023/04/04 04:41:58;;;;;;;3.67;3.50;;;2.10;24.40;;;;;;5079468;28;20264;-78
2023/04/04 04:44:26;;;;;;;4.68;4.35;;;2.10;24.20;;;;;;5080295;28;20208;-78
2023/04/04 04:46:54;;;;;;;4.35;4.05;;;2.10;24.70;;;;;;5079068;28;20253;-80
2023/04/04 04:49:24;;;;;;;4.38;4.18;;;2.10;23.90;;;;;;5073306;28;20221;-80
2023/04/04 04:51:52;;;;;;;4.30;4.00;;;2.10;23.50;;;;;;5074692;28;20226;-79
2023/04/04 04:54:20;;;;;;;3.75;3.65;;;2.10;23.90;;;;;;5067155;28;20338;-78
2023/04/04 04:56:49;;;;;;;4.18;3.90;;;2.10;23.90;;;;;;5071672;28;20208;-78
2023/04/04 04:59:17;;;;;;;4.13;3.83;;;2.10;24.70;;;;;;5080139;28;20198;-78
2023/04/04 05:01:45;;;;;;;3.40;3.20;;;2.00;24.10;;;;;;5074802;28;20228;-79
2023/04/04 05:04:13;;;;;;;4.65;4.25;;;2.00;24.30;;;;;;5082530;28;20202;-79
2023/04/04 05:06:43;;;;;;;4.32;4.10;;;2.00;24.50;;;;;;5083179;28;20208;-81
2023/04/04 05:09:11;;;;;;;5.20;4.75;;;2.00;26.50;;;;;;5083976;28;20286;-80
2023/04/04 05:11:40;;;;;;;4.15;3.95;;;2.00;26.70;;;;;;5077526;28;20231;-79
2023/04/04 05:14:08;;;;;;;5.00;4.60;;;2.00;27.00;;;;;;5081375;28;20240;-78
2023/04/04 05:16:36;;;;;;;4.45;4.20;;;1.90;26.50;;;;;;5083945;28;20198;-80
2023/04/04 05:19:04;;;;;;;4.70;4.40;;;1.90;26.60;;;;;;5083050;28;20213;-80
2023/04/04 05:21:32;;;;;;;4.80;4.50;;;1.90;28.60;;;;;;5081245;28;20444;-81
2023/04/04 05:24:02;;;;;;;4.50;4.20;;;1.90;27.90;;;;;;5084095;28;20198;-80
2023/04/04 05:26:30;;;;;;;4.30;4.10;;;1.90;28.50;;;;;;5079110;28;20197;-79
2023/04/04 05:28:59;;;;;;;4.63;4.35;;;2.00;28.00;;;;;;5080083;28;20213;-80
2023/04/04 05:31:27;;;;;;;4.55;4.20;;;2.00;27.70;;;;;;5084672;28;21026;-79
2023/04/04 05:33:56;;;;;;;5.43;5.05;;;2.00;27.50;;;;;;5083752;28;20284;-80
2023/04/04 05:36:24;;;;;;;4.88;4.57;;;2.00;27.30;;;;;;5077353;28;20196;-79
2023/04/04 05:38:52;;;;;;;4.85;4.47;;;2.00;27.70;;;;;;5068095;28;20589;-81
2023/04/04 05:41:22;;;;;;;4.35;4.15;;;1.90;26.20;;;;;;5079295;28;20215;-81
2023/04/04 05:43:51;;;;;;;4.75;4.45;;;1.90;26.40;;;;;;5072720;28;20236;-80
2023/04/04 05:46:19;;;;;;;4.60;4.20;;;2.00;26.10;;;;;;5076057;28;20221;-79
2023/04/04 05:48:49;;;;;;;4.00;3.80;;;2.00;25.90;;;;;;5081221;28;20199;-79
2023/04/04 05:51:17;;;;;;;4.00;3.80;;;2.10;25.60;;;;;;5082790;28;20713;-80
2023/04/04 05:53:46;;;;;;;4.15;3.85;;;2.20;25.30;;;;;;5080867;28;20201;-80
2023/04/04 05:56:14;;;;;;;4.20;4.00;;;2.20;25.90;;;;;;5083079;28;20185;-79
2023/04/04 05:58:45;;;;;;;4.32;4.03;;;2.30;24.90;;;;;;5081625;28;20209;-80
2023/04/04 06:01:13;;;;;;;4.13;3.90;;;2.30;23.80;;;;;;5077189;28;20221;-78
2023/04/04 06:03:41;;;;;;;4.28;3.97;;;2.40;23.80;;;;;;5073876;28;20232;-79
2023/04/04 06:06:10;;;;;;;4.88;4.60;;;2.40;23.70;;;;;;5074430;28;20206;-77
2023/04/04 06:08:38;;;;;;;4.40;4.00;;;2.50;23.90;;;;;;5077186;28;20250;-79
2023/04/04 06:11:21;;;;;;;4.32;4.03;;;2.70;24.00;;;;;;5078172;28;20711;-79
2023/04/04 06:13:52;;;;;;;4.93;4.53;;;3.00;24.60;;;;;;5086079;28;20208;-78
2023/04/04 06:16:20;;;;;;;4.78;4.47;;;3.20;24.60;;;;;;5087078;28;20202;-77
2023/04/04 06:18:49;;;;;;;4.07;3.88;;;3.50;24.70;;;;;;5085436;28;20218;-79
2023/04/04 06:21:17;;;;;;;4.32;4.03;;;3.70;24.70;;;;;;5086830;28;20228;-78
2023/04/04 06:23:45;;;;;;;4.97;4.57;;;3.90;23.70;;;;;;5070122;28;20807;-79
2023/04/04 06:26:13;;;;;;;4.75;4.55;;;4.00;23.00;;;;;;5079656;28;20238;-78
2023/04/04 06:28:48;;;;;;;4.68;4.13;;;4.20;20.80;;;;;;5084770;28;20325;-78
2023/04/04 06:31:17;;;;;;;4.15;4.05;;;4.30;17.50;;;;;;5087513;28;20741;-79
2023/04/04 06:33:45;;;;;;;4.68;4.35;;;4.50;18.30;;;;;;5083983;28;20199;-79
2023/04/04 06:36:13;;;;;;;4.05;3.85;;;4.60;17.00;;;;;;5092120;28;20199;-79
2023/04/04 06:38:42;;;;;;;4.20;4.00;;;4.70;16.30;;;;;;5085597;28;20212;-79
2023/04/04 06:41:10;;;;;;;4.43;4.13;;;4.80;15.70;;;;;;5083861;28;20263;-80
2023/04/04 06:43:38;;;;;;;4.47;4.07;;;4.80;13.40;;;;;;5083675;28;20615;-80
2023/04/04 06:46:06;;;;;;;4.13;3.97;;;4.80;12.10;;;;;;5084453;28;20207;-79
2023/04/04 06:48:36;;;;;;;4.20;4.00;;;5.00;12.60;;;;;;5087409;28;20188;-80
2023/04/04 06:51:06;;;;;;;4.80;4.60;;;5.00;23.10;;;;;;5082580;28;20212;-79
2023/04/04 06:53:34;;;;;;;3.72;3.60;;;5.10;11.90;;;;;;5084084;28;20197;-79
2023/04/04 06:56:03;;;;;;;4.28;4.00;;;5.10;19.90;;;;;;5084776;28;20207;-76
2023/04/04 06:58:32;;;;;;;3.75;3.55;;;5.20;9.10;;;;;;5086812;28;20214;-79
2023/04/04 07:01:01;;;;;;;5.35;4.57;;;5.20;6.90;;;;;;5078429;28;20234;-78
2023/04/04 07:03:29;;;;;;;3.88;3.55;;;5.20;6.80;;;;;;5085227;28;20211;-79
2023/04/04 07:06:02;;;;;;;5.00;4.80;;;5.30;7.10;;;;;;5084256;28;20743;-79
2023/04/04 07:08:31;;;;;;;3.72;3.47;;;5.30;5.80;;;;;;5083395;28;20296;-81
2023/04/04 07:11:05;;;;;;;4.20;4.00;;;5.40;5.50;;;;;;5077678;28;20220;-78
2023/04/04 07:13:33;;;;;;;4.22;3.67;;;5.50;5.10;;;;;;5083407;28;20230;-79
2023/04/04 07:16:02;;;;;;;4.95;3.35;;;5.40;2.20;;;;;;5080218;28;20188;-77
2023/04/04 07:18:33;;;;;;;3.67;3.35;;;5.30;1.20;;;;;;5076817;28;20220;-79
2023/04/04 07:21:03;;;;;;;4.32;4.00;;;5.40;2.10;;;;;;5081279;28;20226;-79
2023/04/04 07:23:32;;;;;;;5.45;4.40;;;5.50;2.70;;;;;;5073643;28;20208;-79
2023/04/04 07:26:01;;;;;;;3.87;3.67;;;5.80;5.60;;;;;;5079342;28;20188;-79
2023/04/04 07:28:30;;;;;;;4.00;3.70;;;6.00;5.20;;;;;;5081143;28;20484;-80
2023/04/04 07:31:00;;;;;;;4.37;4.17;;;6.20;5.80;;;;;;5082461;28;20228;-79
2023/04/04 07:33:29;;;;;;;5.77;5.37;;;6.30;5.80;;;;;;5085958;28;20465;-81
2023/04/04 07:35:58;;;;;;;4.17;3.87;;;6.40;5.90;;;;;;5087819;28;20433;-80
2023/04/04 07:38:29;;;;;;;4.60;4.40;;;6.60;7.80;;;;;;5084156;28;20557;-79
2023/04/04 07:40:57;;;;;;;4.23;4.03;;;6.70;5.30;;;;;;5081885;28;20477;-79
2023/04/04 07:43:26;;;;;;;3.77;3.67;;;6.90;7.00;;;;;;5083733;28;20452;-80
2023/04/04 07:45:54;;;;;;;4.20;3.87;;;6.60;1.60;;;;;;5084435;28;20547;-80
2023/04/04 07:48:22;;;;;;;3.63;3.50;;;6.50;1.20;;;;;;5084492;28;20457;-79
2023/04/04 07:50:51;;;;;;;3.83;3.73;;;6.40;1.00;;;;;;5078953;28;20519;-80
2023/04/04 07:53:19;;;;;;;4.37;3.97;;;6.70;2.30;;;;;;5079002;28;20462;-79
2023/04/04 07:55:48;;;;;;;3.60;3.47;;;6.80;4.80;;;;;;5080382;28;20943;-79
2023/04/04 07:58:16;;;;;;;4.23;3.83;;;6.90;2.20;;;;;;5082691;28;20451;-79
2023/04/04 08:00:44;;;;;;;4.72;4.40;;;7.00;3.80;;;;;;5080550;28;20467;-78
2023/04/04 08:03:13;;;;;;;4.00;3.80;;;7.20;7.70;;;;;;5038981;28;1198187;-80
2023/04/04 08:05:41;;;;;;;3.97;3.77;;;7.40;8.30;;;;;;5081768;28;20202;-78
2023/04/04 08:08:09;;;;;;;4.73;4.37;;;7.30;4.40;;;;;;5080023;28;20507;-79
2023/04/04 08:10:38;;;;;;;3.93;3.70;;;7.10;1.80;;;;;;5082607;28;20473;-80
2023/04/04 08:13:08;;;;;;;4.50;4.10;;;7.10;3.00;;;;;;5081110;28;20511;-77
2023/04/04 08:15:37;;;;;;;5.97;4.07;;;7.10;1.00;;;;;;5084755;28;20449;-78
2023/04/04 08:18:05;;;;;;;3.93;3.73;;;7.10;1.60;;;;;;5081826;28;20457;-80
2023/04/04 08:20:34;;;;;;;3.63;3.53;;;6.90;9.70;;;;;;5083146;28;20490;-78
2023/04/04 08:23:03;;;;;;;4.30;4.00;;;6.30;1.00;;;;;;5076885;28;20450;-78
2023/04/04 08:25:31;;;;;;;4.40;4.17;;;6.20;1.00;;;;;;5078880;28;20856;-79
2023/04/04 08:28:00;;;;;;;3.37;3.27;;;6.00;1.00;;;;;;5084871;28;20458;-79
2023/04/04 08:30:29;;;;;;;3.83;3.63;;;5.80;1.00;;;;;;5071849;28;20454;-75
2023/04/04 08:32:58;;;;;;;4.00;3.80;;;6.10;1.00;;;;;;5081582;28;20493;-77
2023/04/04 08:35:26;;;;;;;3.90;3.80;;;6.30;1.00;;;;;;5082655;28;20531;-79
2023/04/04 08:37:54;;;;;;;3.70;3.50;;;6.50;1.00;;;;;;5080712;28;21222;-78
2023/04/04 08:40:23;;;;;;;3.77;3.67;;;6.30;1.00;;;;;;5079740;28;20481;-77
2023/04/04 08:42:51;;;;;;;3.70;3.50;;;6.40;1.00;;;;;;5081796;28;20454;-79
2023/04/04 08:45:21;;;;;;;4.30;4.10;;;6.30;1.00;;;;;;5083740;28;20478;-80
2023/04/04 08:47:53;;;;;;;3.80;3.60;;;6.40;1.00;;;;;;5084296;28;20468;-81
2023/04/04 08:50:22;;;;;;;4.60;4.40;;;6.40;1.00;;;;;;5081911;28;20453;-79
2023/04/04 08:52:53;;;;;;;4.63;4.23;;;6.50;1.00;;;;;;5079370;28;20457;-81
2023/04/04 08:55:22;;;;;;;4.00;3.80;;;6.60;1.00;;;;;;5082220;28;21141;-79
2023/04/04 08:57:50;;;;;;;4.23;4.03;;;6.80;1.00;;;;;;5082721;28;21149;-79
2023/04/04 09:00:20;;;;;;;4.00;3.70;;;7.10;1.70;;;;;;5077600;28;20481;-81
2023/04/04 09:02:56;;;;;;;3.70;3.50;;;7.30;1.50;;;;;;5080206;28;20465;-79
2023/04/04 09:05:25;;;;;;;3.87;3.67;;;7.00;1.00;;;;;;5084422;28;20441;-79
2023/04/04 09:07:55;;;;;;;4.20;4.00;;;7.00;1.00;;;;;;5084298;28;20459;-79
2023/04/04 09:10:23;;;;;;;3.70;3.60;;;7.10;1.00;;;;;;5079460;28;20439;-79
2023/04/04 09:12:52;;;;;;;4.50;4.20;;;6.80;1.00;;;;;;5083002;28;20508;-79
2023/04/04 09:15:24;;;;;;;4.67;4.40;;;7.20;1.00;;;;;;5080727;28;20442;-80
2023/04/04 09:17:54;;;;;;;5.10;4.63;;;7.50;1.80;;;;;;5081442;28;20469;-76
2023/04/04 09:20:41;;;;;;;5.27;4.97;;;7.70;2.50;;;;;;5081355;28;20477;-79
2023/04/04 09:23:12;;;;;;;4.47;3.90;;;7.90;3.80;;;;;;5097467;28;20450;-78
2023/04/04 09:25:46;;;;;;;4.37;4.00;;;8.10;3.70;;;;;;5081464;28;20457;-78
2023/04/04 09:28:30;;;;;;;5.17;4.67;;;8.10;2.20;;;;;;5083792;28;21032;-79
2023/04/04 09:31:01;;;;;;;4.93;4.37;;;8.20;5.90;;;;;;5079236;28;21031;-79
2023/04/04 09:33:32;;;;;;;4.37;3.97;;;8.30;5.50;;;;;;5082735;28;20454;-79
2023/04/04 09:36:06;;;;;;;4.60;4.40;;;8.30;3.50;;;;;;5082146;28;21194;-78
2023/04/04 09:38:37;;;;;;;4.03;3.90;;;8.10;12.60;;;;;;5074765;28;20454;-78
2023/04/04 09:41:08;;;;;;;4.43;4.07;;;8.10;1.00;;;;;;5081471;28;20918;-80
2023/04/04 09:43:37;;;;;;;4.47;4.23;;;8.10;1.00;;;;;;5082904;28;20452;-80
2023/04/04 09:46:06;;;;;;;4.47;4.27;;;8.20;1.00;;;;;;5082302;28;20467;-78
2023/04/04 09:48:36;;;;;;;4.30;4.20;;;7.80;1.00;;;;;;5078414;28;20447;-78
2023/04/04 09:51:06;;;;;;;4.90;4.60;;;8.00;1.00;;;;;;5080265;28;20473;-78
2023/04/04 09:53:36;;;;;;;4.53;4.33;;;8.30;13.00;;;;;;5076886;28;20470;-80
2023/04/04 09:56:05;;;;;;;4.53;4.30;;;8.50;3.70;;;;;;5069153;28;21021;-80
2023/04/04 09:58:35;;;;;;;4.50;4.27;;;8.60;3.10;;;;;;5069439;28;20567;-79
2023/04/04 10:01:07;;;;;;;4.50;4.20;;;8.60;2.30;;;;;;5070898;28;20498;-80
2023/04/04 10:03:38;;;;;;;5.20;4.90;;;8.80;4.60;;;;;;5074757;28;20456;-79
2023/04/04 10:06:08;;;;;;;7.87;4.67;;;8.90;6.00;;;;;;5078718;28;20444;-80
2023/04/04 10:08:40;;;;;;;5.00;4.77;;;8.80;4.40;;;;;;5081674;28;20953;-80
2023/04/04 10:11:08;;;;;;;5.30;5.10;;;8.70;1.20;;;;;;5076681;28;20999;-80
2023/04/04 10:13:42;;;;;;;5.03;4.73;;;8.70;1.70;;;;;;5078899;28;20464;-79
2023/04/04 10:16:11;;;;;;;5.27;4.90;;;8.60;1.00;;;;;;5077335;28;20470;-80
2023/04/04 10:18:41;;;;;;;4.70;4.50;;;8.70;1.20;;;;;;5079323;28;21395;-79
2023/04/04 10:21:09;;;;;;;5.77;5.30;;;8.60;1.00;;;;;;5079103;28;20477;-79
2023/04/04 10:23:42;;;;;;;4.80;4.50;;;8.70;13.30;;;;;;5069999;28;20677;-80
2023/04/04 10:26:11;;;;;;;4.90;4.60;;;8.80;2.00;;;;;;5077781;28;20538;-79
2023/04/04 10:28:40;;;;;;;4.53;4.23;;;8.90;4.60;;;;;;5082565;28;20463;-80
2023/04/04 10:31:16;;;;;;;5.17;4.87;;;9.10;6.00;;;;;;5080698;28;21001;-80
2023/04/04 10:33:52;;;;;;;4.33;4.13;;;9.10;2.90;;;;;;5082955;28;20461;-75
2023/04/04 10:36:23;;;;;;;4.27;3.97;;;9.10;3.40;;;;;;5083258;28;20475;-78
2023/04/04 10:39:05;;;;;;;4.70;4.30;;;9.10;2.70;;;;;;5078970;28;20901;-78
2023/04/04 10:41:34;;;;;;;4.97;4.68;;;9.20;4.20;;;;;;5076659;28;20530;-77
2023/04/04 10:44:13;;;;;;;4.43;4.17;;;9.10;5.50;;;;;;5082012;28;20213;-78
2023/04/04 10:46:43;;;;;;;5.10;4.70;;;9.30;9.00;;;;;;5082138;28;20464;-79
2023/04/04 10:49:13;;;;;;;4.83;4.53;;;9.40;12.20;;;;;;5082359;28;20522;-80
2023/04/04 10:51:42;;;;;;;4.73;4.43;;;9.60;10.10;;;;;;5081343;28;20494;-79
2023/04/04 10:54:23;;;;;;;4.53;4.13;;;9.60;7.00;;;;;;5082935;28;20517;-79
2023/04/04 10:56:51;;;;;;;4.60;4.40;;;9.60;6.50;;;;;;5081654;28;20456;-78
2023/04/04 10:59:20;;;;;;;4.83;4.53;;;9.60;8.20;;;;;;5085137;28;20449;-77
2023/04/04 11:01:50;;;;;;;4.67;4.37;;;9.70;9.70;;;;;;5085460;28;20483;-80
2023/04/04 11:04:22;;;;;;;4.43;4.27;;;9.80;9.80;;;;;;5086659;28;20463;-79
2023/04/04 11:07:09;;;;;;;4.70;4.50;;;9.50;5.40;;;;;;5086942;28;20448;-78
2023/04/04 11:09:54;;;;;;;4.47;4.20;;;9.30;1.70;;;;;;5087402;28;20453;-79
2023/04/04 11:12:27;;;;;;;5.30;4.90;;;9.50;6.70;;;;;;5080578;28;20476;-79
2023/04/04 11:15:08;;;;;;;4.60;4.40;;;9.70;6.60;;;;;;5081204;28;20453;-80
2023/04/04 11:18:02;;;;;;;5.83;5.43;;;9.70;5.70;;;;;;5084688;28;20441;-79
2023/04/04 11:20:47;;;;;;;5.43;4.93;;;9.70;3.90;;;;;;5084464;28;20902;-80
2023/04/04 11:23:18;;;;;;;4.70;4.40;;;9.70;5.00;;;;;;5076203;28;20510;-80
2023/04/04 11:25:53;;;;;;;5.17;4.73;;;9.60;2.80;;;;;;5081921;28;20509;-79
2023/04/04 11:28:44;;;;;;;4.13;4.00;;;9.70;6.00;;;;;;5081005;28;20448;-80
2023/04/04 11:31:26;;;;;;;5.00;4.60;;;9.80;5.70;;;;;;5077220;28;20501;-80
2023/04/04 11:34:00;;;;;;;4.60;4.40;;;9.70;3.00;;;;;;5081827;28;20489;-80
2023/04/04 11:36:55;;;;;;;4.72;4.53;;;9.80;7.80;;;;;;5084650;28;20412;-78
2023/04/04 11:39:27;;;;;;;4.73;4.53;;;10.00;8.10;;;;;;5081889;28;20303;-80
2023/04/04 11:41:57;;;;;;;5.33;5.03;;;10.00;6.80;;;;;;5085088;28;20537;-79
2023/04/04 11:44:29;;;;;;;4.47;4.27;;;10.00;4.30;;;;;;5084628;28;20448;-77
2023/04/04 11:47:02;;;;;;;5.33;4.83;;;10.10;4.60;;;;;;5082925;28;20456;-80
2023/04/04 11:49:34;;;;;;;5.13;4.83;;;10.10;6.20;;;;;;5085286;28;20460;-80
2023/04/04 11:52:07;;;;;;;6.67;6.00;;;10.20;4.10;;;;;;5083798;28;20469;-80
2023/04/04 11:54:36;;;;;;;4.93;4.67;;;9.90;1.80;;;;;;5084726;28;20437;-81
2023/04/04 11:57:07;;;;;;;4.57;4.37;;;10.00;4.40;;;;;;5085428;28;20578;-79
2023/04/04 11:59:40;;;;;;;4.87;4.60;;;10.20;5.80;;;;;;5083679;28;21049;-80
2023/04/04 12:02:09;;;;;;;4.87;4.57;;;10.20;4.40;;;;;;5075425;28;21170;-78
2023/04/04 12:04:40;;;;;;;4.87;4.60;;;10.30;5.00;;;;;;5081232;28;20476;-78
2023/04/04 12:07:14;;;;;;;4.43;4.23;;;10.10;1.40;;;;;;5079813;28;20537;-80
2023/04/04 12:09:42;;;;;;;5.03;4.73;;;10.00;1.00;;;;;;5083576;28;20466;-78
2023/04/04 12:12:13;;;;;;;5.43;4.77;;;10.10;2.70;;;;;;5083703;28;20465;-78
2023/04/04 12:14:41;;;;;;;4.67;4.37;;;10.00;1.00;;;;;;5084883;28;20459;-79
2023/04/04 12:17:09;;;;;;;5.30;5.00;;;10.00;1.00;;;;;;5080153;28;20463;-79
2023/04/04 12:19:39;;;;;;;5.03;4.73;;;9.90;1.20;;;;;;5081194;28;20452;-79
2023/04/04 12:22:07;;;;;;;4.90;4.60;;;10.10;1.60;;;;;;5083498;28;20469;-79
2023/04/04 12:24:37;;;;;;;5.20;4.80;;;10.20;4.90;;;;;;5074788;28;20988;-80
2023/04/04 12:27:06;;;;;;;5.47;5.07;;;10.30;2.80;;;;;;5083902;28;20464;-80
2023/04/04 12:29:36;;;;;;;5.43;5.13;;;10.40;4.70;;;;;;5083123;28;20456;-80
2023/04/04 12:32:08;;;;;;;4.90;4.60;;;10.50;4.80;;;;;;5088599;28;20458;-79
2023/04/04 12:34:43;;;;;;;5.20;5.00;;;10.30;11.40;;;;;;5081753;28;20465;-80
2023/04/04 12:37:18;;;;;;;5.03;4.73;;;10.40;3.10;;;;;;5086640;28;20449;-80
2023/04/04 12:39:49;;;;;;;4.60;4.40;;;10.50;3.90;;;;;;5085180;28;20822;-81
2023/04/04 12:42:22;;;;;;;5.20;4.90;;;10.50;3.90;;;;;;5084995;28;20488;-79
2023/04/04 12:44:50;;;;;;;4.50;4.30;;;10.60;7.20;;;;;;5077925;28;20453;-80
2023/04/04 12:47:21;;;;;;;5.20;5.00;;;10.70;9.90;;;;;;5084783;28;20950;-79
2023/04/04 12:49:49;;;;;;;5.73;5.33;;;10.80;11.10;;;;;;5085409;28;20478;-80
2023/04/04 12:52:20;;;;;;;4.90;4.60;;;10.90;10.90;;;;;;5085034;28;20470;-80
2023/04/04 12:54:51;;;;;;;5.60;5.20;;;10.90;10.30;;;;;;5085538;28;20455;-78
2023/04/04 12:57:35;;;;;;;4.90;4.60;;;10.90;7.60;;;;;;5081974;28;20494;-79
2023/04/04 13:00:07;;;;;;;5.07;4.63;;;10.60;2.50;;;;;;5084026;28;20938;-79
2023/04/04 13:02:37;;;;;;;5.30;5.00;;;10.60;3.60;;;;;;5084495;28;20486;-79
2023/04/04 13:05:07;;;;;;;4.80;4.60;;;10.70;5.50;;;;;;5083704;28;20536;-79
2023/04/04 13:07:41;;;;;;;4.40;4.20;;;10.80;8.30;;;;;;5085141;28;20453;-80
2023/04/04 13:10:14;;;;;;;5.93;5.53;;;10.90;6.50;;;;;;5084178;28;20445;-80
2023/04/04 13:12:59;;;;;;;4.87;4.50;;;10.60;1.00;;;;;;5080670;28;20493;-79
2023/04/04 13:15:49;;;;;;;4.27;4.07;;;10.20;1.00;;;;;;5084308;28;20453;-80
2023/04/04 13:18:20;;;;;;;4.63;4.33;;;10.40;1.00;;;;;;5081938;28;20440;-80